Time;durP1;ratioP1;P1;durP2;ratioP2;P2;SDS_P1;SDS_P2;PMS_P1;PMS_P2;Temp;Humidity;BMP_temperature;BMP_pressure;BME280_temperature;BME280_humidity;BME280_pressure;Samples;Min_cycle;Max_cycle;Signal;HPM_P1;HPM_P2
2022/04/24 00:00:09;;;;;;;11.10;5.00;;;;;;;;;;4959948;28;20054;-87
2022/04/24 00:02:35;;;;;;;9.85;4.95;;;;;;;;;;4959280;28;20038;-82
2022/04/24 00:05:01;;;;;;;10.02;5.82;;;;;;;;;;4961279;28;20039;-82
2022/04/24 00:07:27;;;;;;;8.80;5.20;;;;;;;;;;4975287;28;20034;-86
2022/04/24 00:09:53;;;;;;;10.82;5.45;;;;;;;;;;4961034;28;20046;-85
2022/04/24 00:12:19;;;;;;;8.55;5.35;;;;;;;;;;4961091;28;20398;-84
2022/04/24 00:14:46;;;;;;;10.63;5.03;;;;;;;;;;4961894;28;20030;-87
2022/04/24 00:17:15;;;;;;;12.68;4.78;;;;;;;;;;4984003;28;20042;-85
2022/04/24 00:19:41;;;;;;;8.80;4.90;;;;;;;;;;4962049;28;20444;-81
2022/04/24 00:22:07;;;;;;;7.57;5.00;;;;;;;;;;4961189;28;20402;-84
2022/04/24 00:24:33;;;;;;;7.85;4.43;;;;;;;;;;4975642;28;20055;-81
2022/04/24 00:26:59;;;;;;;7.68;5.25;;;;;;;;;;4961959;28;20038;-81
2022/04/24 00:29:25;;;;;;;9.38;5.22;;;;;;;;;;4961370;28;20061;-83
2022/04/24 00:31:51;;;;;;;9.88;5.05;;;;;;;;;;4982751;28;20034;-84
2022/04/24 00:34:17;;;;;;;8.90;5.03;;;;;;;;;;4958240;28;20089;-82
2022/04/24 00:36:46;;;;;;;8.65;5.63;;;;;;;;;;4961294;28;20038;-84
2022/04/24 00:39:13;;;;;;;10.77;5.53;;;;;;;;;;4957221;28;20069;-83
2022/04/24 00:41:49;;;;;;;8.40;5.03;;;;;;;;;;4961590;28;20046;-86
2022/04/24 00:44:19;;;;;;;8.65;4.40;;;;;;;;;;4956043;28;20158;-82
2022/04/24 00:46:54;;;;;;;7.50;4.88;;;;;;;;;;4960385;28;20041;-84
2022/04/24 00:49:20;;;;;;;9.27;4.97;;;;;;;;;;4984271;28;20038;-82
2022/04/24 00:51:46;;;;;;;7.70;5.35;;;;;;;;;;4961441;28;20124;-84
2022/04/24 00:54:12;;;;;;;13.18;6.35;;;;;;;;;;4983209;28;20478;-81
2022/04/24 00:56:39;;;;;;;7.22;4.88;;;;;;;;;;4961706;28;20046;-81
2022/04/24 00:59:06;;;;;;;10.02;4.70;;;;;;;;;;4962033;28;20037;-82
2022/04/24 01:01:35;;;;;;;7.75;5.78;;;;;;;;;;4983017;28;20578;-81
2022/04/24 01:04:04;;;;;;;6.65;4.55;;;;;;;;;;4961352;28;20034;-79
2022/04/24 01:06:34;;;;;;;9.23;5.22;;;;;;;;;;4955303;28;20495;-78
2022/04/24 01:09:19;;;;;;;11.02;5.32;;;;;;;;;;4976306;28;20043;-86
2022/04/24 01:11:46;;;;;;;12.90;5.00;;;;;;;;;;4959792;28;20065;-85
2022/04/24 01:14:13;;;;;;;9.73;4.88;;;;;;;;;;4983234;28;20439;-84
2022/04/24 01:16:39;;;;;;;11.07;5.55;;;;;;;;;;4959093;28;20076;-80
2022/04/24 01:19:06;;;;;;;8.45;4.95;;;;;;;;;;4960521;28;20502;-84
2022/04/24 01:21:32;;;;;;;8.40;5.13;;;;;;;;;;4982649;28;20450;-83
2022/04/24 01:23:58;;;;;;;11.75;5.45;;;;;;;;;;4960751;28;20047;-82
2022/04/24 01:26:24;;;;;;;10.95;5.32;;;;;;;;;;4961178;28;20045;-83
2022/04/24 01:28:50;;;;;;;8.07;4.68;;;;;;;;;;4954535;28;20126;-82
2022/04/24 01:31:16;;;;;;;9.30;5.55;;;;;;;;;;4961530;28;20105;-86
2022/04/24 01:33:42;;;;;;;11.93;5.03;;;;;;;;;;4964937;28;20422;-85
2022/04/24 01:36:09;;;;;;;9.07;5.28;;;;;;;;;;4961935;28;20053;-87
2022/04/24 01:38:35;;;;;;;9.05;5.28;;;;;;;;;;4979449;28;20050;-82
2022/04/24 01:41:01;;;;;;;10.07;5.93;;;;;;;;;;4963382;28;20038;-83
2022/04/24 01:43:27;;;;;;;8.82;4.80;;;;;;;;;;4964667;28;20401;-80
2022/04/24 01:45:53;;;;;;;9.30;5.45;;;;;;;;;;4977467;28;20057;-81
2022/04/24 01:48:20;;;;;;;10.77;5.45;;;;;;;;;;4961376;28;20039;-78
2022/04/24 01:50:46;;;;;;;8.85;5.85;;;;;;;;;;4963792;28;20037;-81
2022/04/24 01:53:12;;;;;;;9.68;5.88;;;;;;;;;;4983699;28;20049;-80
2022/04/24 01:55:40;;;;;;;11.32;5.05;;;;;;;;;;4962711;28;20034;-88
2022/04/24 01:58:06;;;;;;;11.88;6.18;;;;;;;;;;4961669;28;20466;-83
2022/04/24 02:00:32;;;;;;;11.27;5.85;;;;;;;;;;4963420;28;20125;-83
2022/04/24 02:02:57;;;;;;;10.27;6.22;;;;;;;;;;4978784;28;20042;-81
2022/04/24 02:05:23;;;;;;;13.68;6.13;;;;;;;;;;4964820;28;20074;-85
2022/04/24 02:07:49;;;;;;;10.10;5.93;;;;;;;;;;4961814;28;20041;-83
2022/04/24 02:10:15;;;;;;;8.43;4.85;;;;;;;;;;4964283;28;20053;-84
2022/04/24 02:12:43;;;;;;;10.60;5.78;;;;;;;;;;4963132;28;20550;-82
2022/04/24 02:15:09;;;;;;;8.13;5.93;;;;;;;;;;4962082;28;20081;-86
2022/04/24 02:17:35;;;;;;;9.10;5.95;;;;;;;;;;4962005;28;20129;-84
2022/04/24 02:20:02;;;;;;;12.85;6.60;;;;;;;;;;4961895;28;20077;-82
2022/04/24 02:22:32;;;;;;;11.35;5.43;;;;;;;;;;4978354;28;20038;-84
2022/04/24 02:24:58;;;;;;;9.70;5.43;;;;;;;;;;4961821;28;20551;-80
2022/04/24 02:27:24;;;;;;;10.02;5.53;;;;;;;;;;4978272;28;20410;-83
2022/04/24 02:29:50;;;;;;;10.60;5.80;;;;;;;;;;4961457;28;20136;-84
2022/04/24 02:32:17;;;;;;;10.95;5.75;;;;;;;;;;4961314;28;20042;-85
2022/04/24 02:34:43;;;;;;;11.00;5.53;;;;;;;;;;4961640;28;20042;-82
2022/04/24 02:37:08;;;;;;;10.00;5.18;;;;;;;;;;4961769;28;20045;-85
2022/04/24 02:39:35;;;;;;;8.68;5.43;;;;;;;;;;4961727;28;20031;-81
2022/04/24 02:42:01;;;;;;;10.90;5.70;;;;;;;;;;4960180;28;20034;-80
2022/04/24 02:44:27;;;;;;;6.38;4.32;;;;;;;;;;4961790;28;20045;-84
2022/04/24 02:46:53;;;;;;;8.60;5.43;;;;;;;;;;4961488;28;20035;-81
2022/04/24 02:49:19;;;;;;;9.60;5.55;;;;;;;;;;4961389;28;20093;-83
2022/04/24 02:51:45;;;;;;;9.95;5.70;;;;;;;;;;4961001;28;20038;-82
2022/04/24 02:54:11;;;;;;;7.55;5.20;;;;;;;;;;4961167;28;20112;-80
2022/04/24 02:56:38;;;;;;;8.55;4.82;;;;;;;;;;4977171;28;20486;-86
2022/04/24 02:59:04;;;;;;;8.77;4.82;;;;;;;;;;4961097;28;20217;-80
2022/04/24 03:01:30;;;;;;;9.10;5.38;;;;;;;;;;4960821;28;20046;-82
2022/04/24 03:03:59;;;;;;;9.30;5.82;;;;;;;;;;4961342;28;20042;-86
2022/04/24 03:06:25;;;;;;;7.50;5.00;;;;;;;;;;4961469;28;20050;-80
2022/04/24 03:08:51;;;;;;;12.57;4.75;;;;;;;;;;4961076;28;20152;-79
2022/04/24 03:11:17;;;;;;;9.20;5.22;;;;;;;;;;4960969;28;20042;-79
2022/04/24 03:13:43;;;;;;;16.70;5.78;;;;;;;;;;4960568;28;20092;-81
2022/04/24 03:16:10;;;;;;;10.23;5.40;;;;;;;;;;4961103;28;20554;-80
2022/04/24 03:18:36;;;;;;;10.07;5.43;;;;;;;;;;4977437;28;20048;-83
2022/04/24 03:21:02;;;;;;;10.23;5.00;;;;;;;;;;4976709;28;20081;-84
2022/04/24 03:23:28;;;;;;;12.02;6.07;;;;;;;;;;4960988;28;20042;-80
2022/04/24 03:25:54;;;;;;;9.55;5.38;;;;;;;;;;4960068;28;20064;-80
2022/04/24 03:28:20;;;;;;;10.30;5.80;;;;;;;;;;4959878;28;20046;-83
2022/04/24 03:30:46;;;;;;;9.07;5.15;;;;;;;;;;4977029;28;20105;-79
2022/04/24 03:33:12;;;;;;;8.80;5.22;;;;;;;;;;4961290;28;20613;-87
2022/04/24 03:35:38;;;;;;;9.15;4.75;;;;;;;;;;4960982;28;20042;-84
2022/04/24 03:38:04;;;;;;;8.18;4.93;;;;;;;;;;4977373;28;20496;-81
2022/04/24 03:40:30;;;;;;;9.15;4.53;;;;;;;;;;4960649;28;20499;-85
2022/04/24 03:42:56;;;;;;;9.00;5.72;;;;;;;;;;4960604;28;20045;-87
2022/04/24 03:45:22;;;;;;;11.63;5.68;;;;;;;;;;4960908;28;20046;-83
2022/04/24 03:47:48;;;;;;;10.50;6.35;;;;;;;;;;4960442;28;20093;-85
2022/04/24 03:50:15;;;;;;;8.20;5.70;;;;;;;;;;4960965;28;20490;-85
2022/04/24 03:52:41;;;;;;;12.07;6.18;;;;;;;;;;4960369;28;20093;-82
2022/04/24 03:55:08;;;;;;;9.32;5.30;;;;;;;;;;4960567;28;20174;-88
2022/04/24 03:57:35;;;;;;;9.55;5.50;;;;;;;;;;4976339;28;20049;-82
2022/04/24 04:00:01;;;;;;;8.35;4.90;;;;;;;;;;4960455;28;20038;-85
2022/04/24 04:02:27;;;;;;;11.63;6.43;;;;;;;;;;4960161;28;20406;-84
2022/04/24 04:04:53;;;;;;;11.43;5.45;;;;;;;;;;4961184;28;20046;-84
2022/04/24 04:07:19;;;;;;;9.30;4.97;;;;;;;;;;4960342;28;20101;-83
2022/04/24 04:09:45;;;;;;;8.82;5.43;;;;;;;;;;4960737;28;20486;-85
2022/04/24 04:12:11;;;;;;;11.35;5.20;;;;;;;;;;4976169;28;20149;-80
2022/04/24 04:14:37;;;;;;;9.32;5.35;;;;;;;;;;4960112;28;20178;-85
2022/04/24 04:17:03;;;;;;;11.48;5.85;;;;;;;;;;4960474;28;20525;-85
2022/04/24 04:19:29;;;;;;;10.25;5.03;;;;;;;;;;4960008;28;20467;-86
2022/04/24 04:21:55;;;;;;;10.90;5.60;;;;;;;;;;4960302;28;20439;-83
2022/04/24 04:24:21;;;;;;;11.00;5.32;;;;;;;;;;4960009;28;20047;-80
2022/04/24 04:26:47;;;;;;;11.10;5.05;;;;;;;;;;4975735;28;20098;-86
2022/04/24 04:29:13;;;;;;;8.70;4.88;;;;;;;;;;4959874;28;20057;-78
2022/04/24 04:31:39;;;;;;;9.85;5.10;;;;;;;;;;4960107;28;20502;-82
2022/04/24 04:34:06;;;;;;;8.52;4.68;;;;;;;;;;4959908;28;20045;-79
2022/04/24 04:36:32;;;;;;;11.35;6.05;;;;;;;;;;4959812;28;20078;-78
2022/04/24 04:38:58;;;;;;;8.43;4.82;;;;;;;;;;4959754;28;20500;-87
2022/04/24 04:41:24;;;;;;;12.05;5.78;;;;;;;;;;4959480;28;20125;-87
2022/04/24 04:43:50;;;;;;;7.93;4.78;;;;;;;;;;4959833;28;20486;-88
2022/04/24 04:46:16;;;;;;;8.85;5.25;;;;;;;;;;4960139;28;20049;-80
2022/04/24 04:48:42;;;;;;;6.95;4.43;;;;;;;;;;4959033;28;20046;-82
2022/04/24 04:51:08;;;;;;;11.85;6.10;;;;;;;;;;4959245;28;20396;-85
2022/04/24 04:53:35;;;;;;;10.02;4.45;;;;;;;;;;4959657;28;20045;-81
2022/04/24 04:56:01;;;;;;;9.50;5.55;;;;;;;;;;4959385;28;20038;-85
2022/04/24 04:58:26;;;;;;;9.40;4.45;;;;;;;;;;4959677;28;20410;-81
2022/04/24 05:00:52;;;;;;;10.10;6.07;;;;;;;;;;4959343;28;20104;-83
2022/04/24 05:03:18;;;;;;;9.02;4.85;;;;;;;;;;4959685;28;20042;-82
2022/04/24 05:05:44;;;;;;;10.70;5.35;;;;;;;;;;4958496;28;20042;-82
2022/04/24 05:08:10;;;;;;;10.52;4.95;;;;;;;;;;4959023;28;20038;-80
2022/04/24 05:10:36;;;;;;;8.95;5.07;;;;;;;;;;4959195;28;20046;-83
2022/04/24 05:13:02;;;;;;;10.73;4.40;;;;;;;;;;4958932;28;20097;-86
2022/04/24 05:15:28;;;;;;;6.28;3.70;;;;;;;;;;4959427;28;20092;-77
2022/04/24 05:17:54;;;;;;;9.23;5.63;;;;;;;;;;4975399;28;20491;-86
2022/04/24 05:20:20;;;;;;;7.40;4.53;;;;;;;;;;4975511;28;20049;-80
2022/04/24 05:22:46;;;;;;;9.23;5.13;;;;;;;;;;4959273;28;20042;-89
2022/04/24 05:25:14;;;;;;;9.95;5.35;;;;;;;;;;4958984;28;20049;-83
2022/04/24 05:27:40;;;;;;;8.55;4.47;;;;;;;;;;4958897;28;20042;-82
2022/04/24 05:30:08;;;;;;;7.93;5.43;;;;;;;;;;4958614;28;20065;-85
2022/04/24 05:32:48;;;;;;;12.32;6.35;;;;;;;;;;4959072;28;20125;-86
2022/04/24 05:35:15;;;;;;;13.65;6.07;;;;;;;;;;4959510;28;20136;-85
2022/04/24 05:37:41;;;;;;;9.07;5.88;;;;;;;;;;4959387;28;20046;-80
2022/04/24 05:40:07;;;;;;;8.95;5.22;;;;;;;;;;4958545;28;20044;-83
2022/04/24 05:42:33;;;;;;;11.32;5.28;;;;;;;;;;4961518;28;20038;-81
2022/04/24 05:45:09;;;;;;;9.43;6.13;;;;;;;;;;4981610;28;20446;-85
2022/04/24 05:47:35;;;;;;;11.52;6.20;;;;;;;;;;4963178;28;20043;-85
2022/04/24 05:50:01;;;;;;;11.85;6.47;;;;;;;;;;4966941;28;20049;-87
2022/04/24 05:52:28;;;;;;;11.68;5.97;;;;;;;;;;4963534;28;20042;-85
2022/04/24 05:54:54;;;;;;;12.73;6.32;;;;;;;;;;4964650;28;20026;-82
2022/04/24 05:57:20;;;;;;;12.32;5.90;;;;;;;;;;4964437;28;20049;-82
2022/04/24 05:59:46;;;;;;;14.02;6.45;;;;;;;;;;4966272;28;20041;-81
2022/04/24 06:02:11;;;;;;;13.68;6.07;;;;;;;;;;4965180;28;20034;-82
2022/04/24 06:04:38;;;;;;;12.68;6.13;;;;;;;;;;4965502;28;20041;-80
2022/04/24 06:07:04;;;;;;;14.32;6.75;;;;;;;;;;4981756;28;20046;-88
2022/04/24 06:09:30;;;;;;;11.35;6.55;;;;;;;;;;4965234;28;20092;-79
2022/04/24 06:11:58;;;;;;;11.15;5.88;;;;;;;;;;4967202;28;20034;-79
2022/04/24 06:14:24;;;;;;;12.77;6.22;;;;;;;;;;4974790;28;20042;-85
2022/04/24 06:16:50;;;;;;;11.85;6.45;;;;;;;;;;4956739;28;20553;-83
2022/04/24 06:19:16;;;;;;;9.50;5.20;;;;;;;;;;4959083;28;20046;-81
2022/04/24 06:21:42;;;;;;;12.48;5.43;;;;;;;;;;4958849;28;20510;-85
2022/04/24 06:24:08;;;;;;;9.82;6.15;;;;;;;;;;4958999;28;20076;-85
2022/04/24 06:26:34;;;;;;;10.35;5.55;;;;;;;;;;4958896;28;20046;-84
2022/04/24 06:29:01;;;;;;;8.57;5.13;;;;;;;;;;4958205;28;20050;-82
2022/04/24 06:31:27;;;;;;;7.85;5.32;;;;;;;;;;4958909;28;20129;-81
2022/04/24 06:33:53;;;;;;;9.52;4.90;;;;;;;;;;4958160;28;20049;-81
2022/04/24 06:36:19;;;;;;;8.27;4.88;;;;;;;;;;4974904;28;20043;-88
2022/04/24 06:38:45;;;;;;;7.65;4.93;;;;;;;;;;4958985;28;20038;-85
2022/04/24 06:41:11;;;;;;;9.52;4.50;;;;;;;;;;4961250;28;20052;-86
2022/04/24 06:43:37;;;;;;;10.23;4.85;;;;;;;;;;4990716;28;20483;-85
2022/04/24 06:46:03;;;;;;;8.73;4.60;;;;;;;;;;4991028;28;20046;-82
2022/04/24 06:48:30;;;;;;;10.38;3.67;;;;;;;;;;4974889;28;20051;-86
2022/04/24 06:50:55;;;;;;;6.68;3.80;;;;;;;;;;4975017;28;20431;-80
2022/04/24 06:53:21;;;;;;;8.20;4.18;;;;;;;;;;4977279;28;20049;-84
2022/04/24 06:55:48;;;;;;;8.82;4.70;;;;;;;;;;4977933;28;20045;-89
2022/04/24 06:58:15;;;;;;;10.82;3.97;;;;;;;;;;4978317;28;20042;-82
2022/04/24 07:00:42;;;;;;;5.07;3.28;;;;;;;;;;4993493;28;20101;-83
2022/04/24 07:03:12;;;;;;;4.07;2.40;;;;;;;;;;4977464;28;20096;-80
2022/04/24 07:05:38;;;;;;;8.02;3.00;;;;;;;;;;4977998;28;20089;-84
2022/04/24 07:08:05;;;;;;;6.00;3.03;;;;;;;;;;4979104;28;20096;-81
2022/04/24 07:10:31;;;;;;;7.55;3.80;;;;;;;;;;4977163;28;20097;-87
2022/04/24 07:12:57;;;;;;;6.10;2.80;;;;;;;;;;4977624;28;20043;-82
2022/04/24 07:15:24;;;;;;;4.88;2.65;;;;;;;;;;4977812;28;20049;-89
2022/04/24 07:17:50;;;;;;;4.28;2.83;;;;;;;;;;4977402;28;20042;-83
2022/04/24 07:20:17;;;;;;;2.72;2.10;;;;;;;;;;4977586;28;20133;-82
2022/04/24 07:22:48;;;;;;;4.75;2.65;;;;;;;;;;4977366;28;20521;-83
2022/04/24 07:25:15;;;;;;;4.55;2.65;;;;;;;;;;4977333;28;20487;-84
2022/04/24 07:27:41;;;;;;;5.50;2.58;;;;;;;;;;4977048;28;20287;-84
2022/04/24 07:30:13;;;;;;;4.03;1.85;;;;;;;;;;4976917;28;20513;-80
2022/04/24 07:32:48;;;;;;;5.82;2.50;;;;;;;;;;4977409;28;20038;-80
2022/04/24 07:35:19;;;;;;;3.45;2.20;;;;;;;;;;4977645;28;20172;-78
2022/04/24 07:37:46;;;;;;;4.60;2.22;;;;;;;;;;4977054;28;20050;-89
2022/04/24 07:40:13;;;;;;;3.80;2.15;;;;;;;;;;4976596;28;20057;-86
2022/04/24 07:42:45;;;;;;;4.85;2.17;;;;;;;;;;4977059;28;20050;-82
2022/04/24 07:45:12;;;;;;;4.90;2.78;;;;;;;;;;4992873;28;20457;-81
2022/04/24 07:47:38;;;;;;;5.28;2.75;;;;;;;;;;4976683;28;20500;-82
2022/04/24 07:50:04;;;;;;;6.22;2.33;;;;;;;;;;4976589;28;20482;-85
2022/04/24 07:52:30;;;;;;;7.07;2.80;;;;;;;;;;4976266;28;20561;-80
2022/04/24 07:54:56;;;;;;;5.78;2.30;;;;;;;;;;4976694;28;20038;-81
2022/04/24 07:57:22;;;;;;;4.90;2.60;;;;;;;;;;4976651;28;20038;-84
2022/04/24 07:59:48;;;;;;;3.95;1.83;;;;;;;;;;4977204;28;20046;-81
2022/04/24 08:02:13;;;;;;;5.03;2.35;;;;;;;;;;4976853;28;20041;-85
2022/04/24 08:04:39;;;;;;;5.75;2.20;;;;;;;;;;4976422;28;20094;-84
2022/04/24 08:07:07;;;;;;;4.30;2.75;;;;;;;;;;4976556;28;20046;-87
2022/04/24 08:09:33;;;;;;;4.68;2.50;;;;;;;;;;4992470;28;20057;-81
2022/04/24 08:12:00;;;;;;;3.83;2.45;;;;;;;;;;4992527;28;20038;-85
2022/04/24 08:14:26;;;;;;;4.18;2.55;;;;;;;;;;4976238;28;20039;-85
2022/04/24 08:16:52;;;;;;;4.38;2.45;;;;;;;;;;4976520;28;20401;-83
2022/04/24 08:19:18;;;;;;;5.50;3.28;;;;;;;;;;4976672;28;20125;-83
2022/04/24 08:21:44;;;;;;;4.32;2.80;;;;;;;;;;4992040;28;20046;-85
2022/04/24 08:24:10;;;;;;;5.13;2.42;;;;;;;;;;4975985;28;20138;-85
2022/04/24 08:26:37;;;;;;;3.83;3.47;;;;;;;;;;4976497;28;20042;-85
2022/04/24 08:29:03;;;;;;;5.50;4.03;;;;;;;;;;4975701;28;20108;-87
2022/04/24 08:31:29;;;;;;;4.85;4.25;;;;;;;;;;4976170;28;20045;-86
2022/04/24 08:33:57;;;;;;;4.60;2.20;;;;;;;;;;4992117;28;20042;-87
2022/04/24 08:36:24;;;;;;;3.80;2.65;;;;;;;;;;4976144;28;20053;-86
2022/04/24 08:38:49;;;;;;;5.10;3.65;;;;;;;;;;4992229;28;20511;-81
2022/04/24 08:41:17;;;;;;;8.30;3.22;;;;;;;;;;4991128;28;20046;-83
2022/04/24 08:43:43;;;;;;;6.00;3.05;;;;;;;;;;4975694;28;20092;-84
2022/04/24 08:46:09;;;;;;;4.25;3.85;;;;;;;;;;4975594;28;20443;-80
2022/04/24 08:48:36;;;;;;;4.55;2.60;;;;;;;;;;4975541;28;20054;-83
2022/04/24 08:51:05;;;;;;;6.85;4.13;;;;;;;;;;4975663;28;20525;-82
2022/04/24 08:53:31;;;;;;;4.47;3.60;;;;;;;;;;4975595;28;20038;-80
2022/04/24 08:55:58;;;;;;;4.75;4.03;;;;;;;;;;4991972;28;20049;-86
2022/04/24 08:58:24;;;;;;;5.97;3.03;;;;;;;;;;4991340;28;20607;-81
2022/04/24 09:00:50;;;;;;;7.00;4.80;;;;;;;;;;4975364;28;20074;-82
2022/04/24 09:03:16;;;;;;;3.85;2.53;;;;;;;;;;4991547;28;20487;-80
2022/04/24 09:05:42;;;;;;;4.00;3.60;;;;;;;;;;4975571;28;20679;-86
2022/04/24 09:08:09;;;;;;;5.53;3.60;;;;;;;;;;4975635;28;20050;-85
2022/04/24 09:10:51;;;;;;;5.13;3.90;;;;;;;;;;4975619;28;20038;-87
2022/04/24 09:14:14;;;;;;;5.32;2.80;;;;;;;;;;4975357;28;20092;-88
2022/04/24 09:16:46;;;;;;;4.60;2.55;;;;;;;;;;4991415;28;20538;-84
2022/04/24 09:19:16;;;;;;;3.20;2.63;;;;;;;;;;4992321;28;20054;-85
2022/04/24 09:21:42;;;;;;;3.17;2.22;;;;;;;;;;4975651;28;20442;-83
2022/04/24 09:24:09;;;;;;;3.60;2.42;;;;;;;;;;4991472;28;20136;-84
2022/04/24 09:26:35;;;;;;;4.00;2.40;;;;;;;;;;4975264;28;20047;-82
2022/04/24 09:29:01;;;;;;;4.03;2.60;;;;;;;;;;4991190;28;20137;-82
2022/04/24 09:31:30;;;;;;;3.58;2.10;;;;;;;;;;4991317;28;20485;-80
2022/04/24 09:33:56;;;;;;;3.55;2.50;;;;;;;;;;4975182;28;20042;-82
2022/04/24 09:36:26;;;;;;;8.20;3.38;;;;;;;;;;4975526;28;20042;-82
2022/04/24 09:38:52;;;;;;;4.65;2.40;;;;;;;;;;4991271;28;20088;-83
2022/04/24 09:41:22;;;;;;;4.68;2.72;;;;;;;;;;4991409;28;20038;-85
2022/04/24 09:43:49;;;;;;;6.78;2.35;;;;;;;;;;4975451;28;20042;-82
2022/04/24 09:46:36;;;;;;;5.07;2.20;;;;;;;;;;4991355;28;20046;-83
2022/04/24 09:49:02;;;;;;;3.33;2.72;;;;;;;;;;4975011;28;20485;-82
2022/04/24 09:51:28;;;;;;;7.68;2.20;;;;;;;;;;4976295;28;20088;-83
2022/04/24 09:54:00;;;;;;;4.40;2.70;;;;;;;;;;4979490;28;20038;-84
2022/04/24 09:56:27;;;;;;;4.50;2.47;;;;;;;;;;4978727;28;20042;-85
2022/04/24 09:58:53;;;;;;;3.63;2.53;;;;;;;;;;4978452;28;20038;-82
2022/04/24 10:01:22;;;;;;;3.55;2.25;;;;;;;;;;4994812;28;20046;-80
2022/04/24 10:03:49;;;;;;;4.80;2.33;;;;;;;;;;4978402;28;20129;-80
2022/04/24 10:06:17;;;;;;;5.10;2.15;;;;;;;;;;4979481;28;20242;-85
2022/04/24 10:08:43;;;;;;;4.32;2.40;;;;;;;;;;4994712;28;20053;-83
2022/04/24 10:11:09;;;;;;;4.03;2.38;;;;;;;;;;4978230;28;20046;-82
2022/04/24 10:13:39;;;;;;;5.03;2.28;;;;;;;;;;4994909;28;20067;-82
2022/04/24 10:16:08;;;;;;;4.15;2.63;;;;;;;;;;4978298;28;20035;-88
2022/04/24 10:18:51;;;;;;;4.10;2.35;;;;;;;;;;4978152;28;20050;-78
2022/04/24 10:21:24;;;;;;;3.20;1.75;;;;;;;;;;4978493;28;20104;-84
2022/04/24 10:23:50;;;;;;;3.63;1.92;;;;;;;;;;4978153;28;20050;-81
2022/04/24 10:26:22;;;;;;;6.75;2.38;;;;;;;;;;4978029;28;20038;-83
2022/04/24 10:28:49;;;;;;;3.95;2.38;;;;;;;;;;4993659;28;20051;-81
2022/04/24 10:31:15;;;;;;;8.20;2.70;;;;;;;;;;4994024;28;20046;-83
2022/04/24 10:33:52;;;;;;;3.38;2.50;;;;;;;;;;4993519;28;20078;-83
2022/04/24 10:36:19;;;;;;;3.67;2.05;;;;;;;;;;4974699;28;20049;-86
2022/04/24 10:38:51;;;;;;;4.65;2.13;;;;;;;;;;4990188;28;20053;-82
2022/04/24 10:41:18;;;;;;;3.65;2.15;;;;;;;;;;4974023;28;20046;-79
2022/04/24 10:43:48;;;;;;;6.78;2.83;;;;;;;;;;4974238;28;20046;-82
2022/04/24 10:46:35;;;;;;;3.78;2.03;;;;;;;;;;4974897;28;20133;-80
2022/04/24 10:49:11;;;;;;;3.20;2.17;;;;;;;;;;4990940;28;20046;-81
2022/04/24 10:51:39;;;;;;;3.63;2.13;;;;;;;;;;4990452;28;20592;-85
2022/04/24 10:54:09;;;;;;;2.67;1.63;;;;;;;;;;4990535;28;20065;-82
2022/04/24 10:56:36;;;;;;;3.33;1.83;;;;;;;;;;4974191;28;20053;-77
2022/04/24 10:59:06;;;;;;;3.08;2.13;;;;;;;;;;4990714;28;20050;-79
2022/04/24 11:01:33;;;;;;;2.08;1.70;;;;;;;;;;4990473;28;20046;-81
2022/04/24 11:04:04;;;;;;;3.55;2.08;;;;;;;;;;4972964;28;20566;-81
2022/04/24 11:06:30;;;;;;;4.55;2.50;;;;;;;;;;4990266;28;20053;-82
2022/04/24 11:09:05;;;;;;;6.35;2.72;;;;;;;;;;4973916;28;20042;-82
2022/04/24 11:11:33;;;;;;;3.08;2.00;;;;;;;;;;4958125;28;20057;-84
2022/04/24 11:14:00;;;;;;;4.63;2.50;;;;;;;;;;4974416;28;20073;-82
2022/04/24 11:16:26;;;;;;;5.20;1.88;;;;;;;;;;4974184;28;20053;-83
2022/04/24 11:18:54;;;;;;;1.50;1.40;;;;;;;;;;4974033;28;20041;-81
2022/04/24 11:21:21;;;;;;;3.17;1.83;;;;;;;;;;4989889;28;20568;-81
2022/04/24 11:23:47;;;;;;;4.85;2.00;;;;;;;;;;4990722;28;20050;-82
2022/04/24 11:26:15;;;;;;;3.05;2.35;;;;;;;;;;4992740;28;20043;-83
2022/04/24 11:28:42;;;;;;;1.70;1.42;;;;;;;;;;4979802;28;20104;-82
2022/04/24 11:31:08;;;;;;;2.75;1.80;;;;;;;;;;4980307;28;20034;-81
2022/04/24 11:33:36;;;;;;;3.92;1.67;;;;;;;;;;4980116;28;20042;-83
2022/04/24 11:36:06;;;;;;;2.17;1.42;;;;;;;;;;4980189;28;20099;-82
2022/04/24 11:38:33;;;;;;;3.37;1.90;;;;;;;;;;4980200;28;20053;-83
2022/04/24 11:41:03;;;;;;;2.92;1.70;;;;;;;;;;4979972;28;20041;-81
2022/04/24 11:43:29;;;;;;;2.97;1.52;;;;;;;;;;4996301;28;20081;-84
2022/04/24 11:51:26;;;;;;;3.75;2.33;;;;;;;;;;4995840;28;20128;-81
2022/04/24 11:53:54;;;;;;;5.13;1.95;;;;;;;;;;4980033;28;20049;-82
2022/04/24 11:56:20;;;;;;;10.20;2.80;;;;;;;;;;4996499;28;20490;-81
2022/04/24 11:58:46;;;;;;;2.90;2.03;;;;;;;;;;4980103;28;20056;-79
2022/04/24 12:01:14;;;;;;;3.67;2.22;;;;;;;;;;4995985;28;20534;-83
2022/04/24 12:03:46;;;;;;;2.25;1.90;;;;;;;;;;4979691;28;20042;-79
2022/04/24 12:06:15;;;;;;;5.78;2.90;;;;;;;;;;4979284;28;20104;-79
2022/04/24 12:08:45;;;;;;;4.15;2.75;;;;;;;;;;4995660;28;20050;-78
2022/04/24 12:11:25;;;;;;;4.13;2.00;;;;;;;;;;4995573;28;20125;-85
2022/04/24 12:14:03;;;;;;;2.83;2.40;;;;;;;;;;4979236;28;20050;-84
2022/04/24 12:16:30;;;;;;;4.15;2.75;;;;;;;;;;4979383;28;20049;-81
2022/04/24 12:18:57;;;;;;;6.70;2.85;;;;;;;;;;4963784;28;20108;-79
2022/04/24 12:21:23;;;;;;;4.97;2.42;;;;;;;;;;4978923;28;20042;-87
2022/04/24 12:23:50;;;;;;;5.72;2.63;;;;;;;;;;4979289;28;20053;-86
2022/04/24 12:26:16;;;;;;;4.50;2.50;;;;;;;;;;4978872;28;20132;-81
2022/04/24 12:28:42;;;;;;;4.50;2.53;;;;;;;;;;4978622;28;20132;-84
2022/04/24 12:31:19;;;;;;;2.55;2.13;;;;;;;;;;4978808;28;20473;-81
2022/04/24 12:33:49;;;;;;;3.90;2.33;;;;;;;;;;4979291;28;20057;-86
2022/04/24 12:36:16;;;;;;;3.10;2.03;;;;;;;;;;4995139;28;20038;-80
2022/04/24 12:38:42;;;;;;;4.20;2.35;;;;;;;;;;4994954;28;20402;-84
2022/04/24 12:41:10;;;;;;;4.45;2.47;;;;;;;;;;4978869;28;20045;-82
2022/04/24 12:43:36;;;;;;;4.53;2.17;;;;;;;;;;4995022;28;20046;-80
2022/04/24 12:46:03;;;;;;;2.13;1.88;;;;;;;;;;4978971;28;20406;-82
2022/04/24 12:48:30;;;;;;;3.78;2.13;;;;;;;;;;4994557;28;20058;-80
2022/04/24 12:50:55;;;;;;;3.38;1.88;;;;;;;;;;4978818;28;20399;-81
2022/04/24 12:53:25;;;;;;;4.55;2.40;;;;;;;;;;4978824;28;20038;-84
2022/04/24 12:55:51;;;;;;;4.78;2.75;;;;;;;;;;4978509;28;20454;-84
2022/04/24 12:58:18;;;;;;;4.55;2.40;;;;;;;;;;4978397;28;20088;-82
2022/04/24 13:00:47;;;;;;;2.92;2.38;;;;;;;;;;4978857;28;20525;-82
2022/04/24 13:03:14;;;;;;;4.90;2.63;;;;;;;;;;4995146;28;20395;-83
2022/04/24 13:05:42;;;;;;;3.53;2.40;;;;;;;;;;4978596;28;20038;-80
2022/04/24 13:08:08;;;;;;;2.70;2.20;;;;;;;;;;4994773;28;20041;-79
2022/04/24 13:10:34;;;;;;;4.22;2.30;;;;;;;;;;4978365;28;20161;-81
2022/04/24 13:13:04;;;;;;;2.85;1.80;;;;;;;;;;4978337;28;20034;-82
2022/04/24 13:15:31;;;;;;;8.52;2.58;;;;;;;;;;4978434;28;20084;-84
2022/04/24 13:18:07;;;;;;;4.93;2.40;;;;;;;;;;4994810;28;20057;-81
2022/04/24 13:20:36;;;;;;;2.80;1.80;;;;;;;;;;4978591;28;20045;-79
2022/04/24 13:23:03;;;;;;;4.55;2.35;;;;;;;;;;4994328;28;20046;-81
2022/04/24 13:25:29;;;;;;;4.35;2.47;;;;;;;;;;4978436;28;20448;-83
2022/04/24 13:27:55;;;;;;;6.47;2.85;;;;;;;;;;4984450;28;20053;-83
2022/04/24 13:30:22;;;;;;;3.13;2.60;;;;;;;;;;5000839;28;20495;-81
2022/04/24 13:32:48;;;;;;;2.42;2.22;;;;;;;;;;5000894;28;20450;-80
2022/04/24 13:35:14;;;;;;;3.67;2.63;;;;;;;;;;4984854;28;20509;-81
2022/04/24 13:40:25;;;;;;;5.40;2.65;;;;;;;;;;5000939;28;20494;-85
2022/04/24 13:42:51;;;;;;;7.20;1.83;;;;;;;;;;5000893;28;20143;-79
2022/04/24 13:45:17;;;;;;;4.75;2.60;;;;;;;;;;4984793;28;20049;-84
2022/04/24 13:47:45;;;;;;;5.97;3.10;;;;;;;;;;4984691;28;20048;-84
2022/04/24 13:50:12;;;;;;;4.22;2.33;;;;;;;;;;4984448;28;20136;-82
2022/04/24 13:52:38;;;;;;;2.17;1.80;;;;;;;;;;5001065;28;20046;-85
2022/04/24 13:55:05;;;;;;;4.10;1.98;;;;;;;;;;4984439;28;20129;-86
2022/04/24 13:57:31;;;;;;;3.33;2.45;;;;;;;;;;4984161;28;20084;-82
2022/04/24 13:59:57;;;;;;;5.07;2.85;;;;;;;;;;4984660;28;20041;-87
2022/04/24 14:02:23;;;;;;;5.05;2.42;;;;;;;;;;4984377;28;20033;-84
2022/04/24 14:04:49;;;;;;;3.38;2.33;;;;;;;;;;4984197;28;20506;-82
2022/04/24 14:07:15;;;;;;;3.28;2.50;;;;;;;;;;4984573;28;20030;-83
2022/04/24 14:09:42;;;;;;;4.90;2.40;;;;;;;;;;4984055;28;20185;-81
2022/04/24 14:12:10;;;;;;;5.25;2.30;;;;;;;;;;4984688;28;20089;-79
2022/04/24 14:14:36;;;;;;;2.63;1.95;;;;;;;;;;4984507;28;20042;-83
2022/04/24 14:17:02;;;;;;;3.53;1.60;;;;;;;;;;4984358;28;20045;-83
2022/04/24 14:19:29;;;;;;;3.92;2.70;;;;;;;;;;4984403;28;20052;-81
2022/04/24 14:21:55;;;;;;;3.35;2.20;;;;;;;;;;4984597;28;20044;-83
2022/04/24 14:24:25;;;;;;;4.20;2.13;;;;;;;;;;4984262;28;20045;-82
2022/04/24 14:26:51;;;;;;;3.83;2.20;;;;;;;;;;4984026;28;20045;-83
2022/04/24 14:29:21;;;;;;;5.00;2.30;;;;;;;;;;5000328;28;20442;-84
2022/04/24 14:31:47;;;;;;;2.90;2.55;;;;;;;;;;4984130;28;20041;-81
2022/04/24 14:34:14;;;;;;;3.25;2.03;;;;;;;;;;4984099;28;20094;-86
2022/04/24 14:36:40;;;;;;;3.08;2.38;;;;;;;;;;4967966;28;20041;-78
2022/04/24 14:39:09;;;;;;;4.75;2.05;;;;;;;;;;4981337;28;20532;-86
2022/04/24 14:41:35;;;;;;;7.32;2.50;;;;;;;;;;4980877;28;20482;-82
2022/04/24 14:44:01;;;;;;;2.92;2.25;;;;;;;;;;4979650;28;20160;-77
2022/04/24 14:57:29;;;;;;;5.60;3.00;;;;;;;;;;4994508;28;20049;-84
2022/04/24 14:59:56;;;;;;;2.50;1.90;;;;;;;;;;4977263;28;20410;-79